sensor_id;sensor_type;location;lat;lon;timestamp;P1;durP1;ratioP1;P2;durP2;ratioP2
54545;SDS011;40444;45.184;9.850;2023-03-29T19:34:37;19.80;;;10.33;;
54545;SDS011;40444;45.184;9.850;2023-03-29T19:37:06;15.77;;;8.50;;
54545;SDS011;40444;45.184;9.850;2023-03-29T19:39:34;26.67;;;7.35;;
54545;SDS011;40444;45.184;9.850;2023-03-29T19:42:03;31.20;;;5.80;;
54545;SDS011;40444;45.184;9.850;2023-03-29T19:44:32;43.05;;;6.80;;
54545;SDS011;40444;45.184;9.850;2023-03-29T19:47:03;41.35;;;6.63;;
54545;SDS011;40444;45.184;9.850;2023-03-29T19:49:37;39.85;;;6.90;;
54545;SDS011;40444;45.184;9.850;2023-03-29T19:52:05;22.60;;;5.20;;
54545;SDS011;40444;45.184;9.850;2023-03-29T19:54:34;17.65;;;4.50;;
54545;SDS011;40444;45.184;9.850;2023-03-29T19:57:02;18.33;;;3.60;;
54545;SDS011;40444;45.184;9.850;2023-03-29T19:59:31;21.40;;;6.10;;
54545;SDS011;40444;45.184;9.850;2023-03-29T20:02:00;20.15;;;8.93;;
54545;SDS011;40444;45.184;9.850;2023-03-29T20:04:29;21.15;;;10.75;;
54545;SDS011;40444;45.184;9.850;2023-03-29T20:06:59;20.05;;;9.15;;
54545;SDS011;40444;45.184;9.850;2023-03-29T20:09:28;10.65;;;6.55;;
54545;SDS011;40444;45.184;9.850;2023-03-29T20:12:00;14.60;;;6.45;;
54545;SDS011;40444;45.184;9.850;2023-03-29T20:14:29;12.05;;;7.18;;
54545;SDS011;40444;45.184;9.850;2023-03-29T20:16:57;15.20;;;6.93;;
54545;SDS011;40444;45.184;9.850;2023-03-29T20:19:26;10.25;;;5.47;;
54545;SDS011;40444;45.184;9.850;2023-03-29T20:21:56;8.50;;;5.00;;
54545;SDS011;40444;45.184;9.850;2023-03-29T20:24:25;17.13;;;5.13;;
54545;SDS011;40444;45.184;9.850;2023-03-29T20:26:54;18.42;;;5.40;;
54545;SDS011;40444;45.184;9.850;2023-03-29T20:29:22;12.80;;;4.80;;
54545;SDS011;40444;45.184;9.850;2023-03-29T20:31:51;15.57;;;4.30;;
54545;SDS011;40444;45.184;9.850;2023-03-29T20:34:28;9.05;;;4.15;;
54545;SDS011;40444;45.184;9.850;2023-03-29T20:36:57;8.90;;;3.42;;
54545;SDS011;40444;45.184;9.850;2023-03-29T20:39:27;7.05;;;3.08;;
54545;SDS011;40444;45.184;9.850;2023-03-29T20:41:58;8.85;;;3.40;;
54545;SDS011;40444;45.184;9.850;2023-03-29T20:44:27;8.40;;;3.65;;
54545;SDS011;40444;45.184;9.850;2023-03-29T20:46:55;8.13;;;3.67;;
54545;SDS011;40444;45.184;9.850;2023-03-29T20:49:33;8.43;;;3.40;;
54545;SDS011;40444;45.184;9.850;2023-03-29T20:52:06;7.43;;;3.00;;
54545;SDS011;40444;45.184;9.850;2023-03-29T20:54:44;6.65;;;3.33;;
54545;SDS011;40444;45.184;9.850;2023-03-29T20:57:13;8.05;;;3.47;;
54545;SDS011;40444;45.184;9.850;2023-03-29T20:59:46;7.40;;;3.20;;
54545;SDS011;40444;45.184;9.850;2023-03-29T21:02:19;6.13;;;3.15;;
54545;SDS011;40444;45.184;9.850;2023-03-29T21:04:51;10.77;;;3.35;;
54545;SDS011;40444;45.184;9.850;2023-03-29T21:07:21;5.53;;;3.83;;
54545;SDS011;40444;45.184;9.850;2023-03-29T21:09:49;6.45;;;3.40;;
54545;SDS011;40444;45.184;9.850;2023-03-29T21:12:18;7.72;;;3.35;;
54545;SDS011;40444;45.184;9.850;2023-03-29T21:14:46;8.05;;;3.22;;
54545;SDS011;40444;45.184;9.850;2023-03-29T21:17:31;8.93;;;3.53;;
54545;SDS011;40444;45.184;9.850;2023-03-29T21:20:00;8.70;;;3.90;;
54545;SDS011;40444;45.184;9.850;2023-03-29T21:22:38;11.35;;;4.38;;
54545;SDS011;40444;45.184;9.850;2023-03-29T21:25:11;10.30;;;3.88;;
54545;SDS011;40444;45.184;9.850;2023-03-29T21:27:42;7.57;;;3.50;;
54545;SDS011;40444;45.184;9.850;2023-03-29T21:30:10;7.78;;;4.28;;
54545;SDS011;40444;45.184;9.850;2023-03-29T21:32:39;9.55;;;4.07;;
54545;SDS011;40444;45.184;9.850;2023-03-29T21:35:08;7.63;;;3.80;;
54545;SDS011;40444;45.184;9.850;2023-03-29T21:37:36;10.15;;;3.97;;
54545;SDS011;40444;45.184;9.850;2023-03-29T21:40:05;6.28;;;4.03;;
54545;SDS011;40444;45.184;9.850;2023-03-29T21:42:35;8.32;;;4.00;;
54545;SDS011;40444;45.184;9.850;2023-03-29T21:45:03;6.93;;;4.30;;
54545;SDS011;40444;45.184;9.850;2023-03-29T21:47:32;8.35;;;4.10;;
54545;SDS011;40444;45.184;9.850;2023-03-29T21:50:00;7.72;;;4.20;;
54545;SDS011;40444;45.184;9.850;2023-03-29T21:52:28;8.80;;;3.85;;
54545;SDS011;40444;45.184;9.850;2023-03-29T21:54:56;8.63;;;4.78;;
54545;SDS011;40444;45.184;9.850;2023-03-29T21:57:25;10.10;;;4.53;;
54545;SDS011;40444;45.184;9.850;2023-03-29T21:59:53;9.85;;;4.30;;
54545;SDS011;40444;45.184;9.850;2023-03-29T22:02:22;8.75;;;4.57;;
54545;SDS011;40444;45.184;9.850;2023-03-29T22:04:50;9.13;;;3.80;;
54545;SDS011;40444;45.184;9.850;2023-03-29T22:07:18;8.75;;;3.90;;
54545;SDS011;40444;45.184;9.850;2023-03-29T22:09:49;8.32;;;4.30;;
54545;SDS011;40444;45.184;9.850;2023-03-29T22:12:17;8.82;;;4.82;;
54545;SDS011;40444;45.184;9.850;2023-03-29T22:14:45;5.80;;;3.85;;
54545;SDS011;40444;45.184;9.850;2023-03-29T22:17:14;5.88;;;4.10;;
54545;SDS011;40444;45.184;9.850;2023-03-29T22:19:43;7.43;;;4.43;;
54545;SDS011;40444;45.184;9.850;2023-03-29T22:22:12;9.10;;;4.05;;
54545;SDS011;40444;45.184;9.850;2023-03-29T22:24:41;7.70;;;4.03;;
54545;SDS011;40444;45.184;9.850;2023-03-29T22:27:09;6.47;;;3.80;;
54545;SDS011;40444;45.184;9.850;2023-03-29T22:29:38;5.72;;;3.80;;
54545;SDS011;40444;45.184;9.850;2023-03-29T22:32:06;8.70;;;4.28;;
54545;SDS011;40444;45.184;9.850;2023-03-29T22:34:35;5.90;;;3.40;;
54545;SDS011;40444;45.184;9.850;2023-03-29T22:37:03;7.65;;;3.70;;
54545;SDS011;40444;45.184;9.850;2023-03-29T22:39:35;9.68;;;4.03;;
54545;SDS011;40444;45.184;9.850;2023-03-29T22:42:04;7.20;;;4.32;;
54545;SDS011;40444;45.184;9.850;2023-03-29T22:44:32;6.60;;;4.40;;
54545;SDS011;40444;45.184;9.850;2023-03-29T22:47:00;10.35;;;4.05;;
54545;SDS011;40444;45.184;9.850;2023-03-29T22:49:28;6.70;;;4.32;;
54545;SDS011;40444;45.184;9.850;2023-03-29T22:51:56;8.93;;;4.18;;
54545;SDS011;40444;45.184;9.850;2023-03-29T22:54:28;8.02;;;4.95;;
54545;SDS011;40444;45.184;9.850;2023-03-29T22:56:57;10.43;;;5.63;;
54545;SDS011;40444;45.184;9.850;2023-03-29T22:59:26;7.35;;;4.20;;
54545;SDS011;40444;45.184;9.850;2023-03-29T23:01:56;8.32;;;4.00;;
54545;SDS011;40444;45.184;9.850;2023-03-29T23:04:27;6.82;;;3.50;;
54545;SDS011;40444;45.184;9.850;2023-03-29T23:06:56;10.93;;;4.00;;
54545;SDS011;40444;45.184;9.850;2023-03-29T23:09:25;6.97;;;4.35;;
54545;SDS011;40444;45.184;9.850;2023-03-29T23:12:01;6.97;;;3.85;;
54545;SDS011;40444;45.184;9.850;2023-03-29T23:14:29;4.53;;;3.30;;
54545;SDS011;40444;45.184;9.850;2023-03-29T23:16:58;7.45;;;3.90;;
54545;SDS011;40444;45.184;9.850;2023-03-29T23:19:26;7.22;;;4.15;;
54545;SDS011;40444;45.184;9.850;2023-03-29T23:21:54;8.45;;;4.43;;
54545;SDS011;40444;45.184;9.850;2023-03-29T23:24:23;6.45;;;4.40;;
54545;SDS011;40444;45.184;9.850;2023-03-29T23:26:51;7.43;;;4.53;;
54545;SDS011;40444;45.184;9.850;2023-03-29T23:29:19;8.43;;;5.00;;
54545;SDS011;40444;45.184;9.850;2023-03-29T23:31:47;7.78;;;4.65;;
54545;SDS011;40444;45.184;9.850;2023-03-29T23:34:16;7.63;;;4.55;;
54545;SDS011;40444;45.184;9.850;2023-03-29T23:36:46;8.70;;;4.65;;
54545;SDS011;40444;45.184;9.850;2023-03-29T23:39:15;6.72;;;4.47;;
54545;SDS011;40444;45.184;9.850;2023-03-29T23:41:44;11.10;;;4.90;;
54545;SDS011;40444;45.184;9.850;2023-03-29T23:44:12;8.35;;;4.88;;
54545;SDS011;40444;45.184;9.850;2023-03-29T23:46:40;6.97;;;4.90;;
54545;SDS011;40444;45.184;9.850;2023-03-29T23:49:09;9.65;;;5.10;;
54545;SDS011;40444;45.184;9.850;2023-03-29T23:51:37;6.43;;;5.13;;
54545;SDS011;40444;45.184;9.850;2023-03-29T23:54:06;6.65;;;4.82;;
54545;SDS011;40444;45.184;9.850;2023-03-29T23:56:34;6.80;;;4.20;;
54545;SDS011;40444;45.184;9.850;2023-03-29T23:59:03;8.27;;;4.50;;
